createdAt,value
2018-09-20T00:00:50.428Z,1016.64
2018-09-20T00:02:00.300Z,1016.61
2018-09-20T00:03:10.147Z,1016.58
2018-09-20T00:04:19.449Z,1016.63
2018-09-20T00:05:29.342Z,1016.61
2018-09-20T00:06:39.464Z,1016.59
2018-09-20T00:07:49.308Z,1016.57
2018-09-20T00:09:04.605Z,1016.55
2018-09-20T00:10:14.717Z,1016.53
2018-09-20T00:11:24.552Z,1016.53
2018-09-20T00:12:34.664Z,1016.55
2018-09-20T00:13:44.260Z,1016.52
2018-09-20T00:14:53.832Z,1016.52
2018-09-20T00:16:03.674Z,1016.53
2018-09-20T00:17:13.556Z,1016.55
2018-09-20T00:18:23.393Z,1016.54
2018-09-20T00:19:33.509Z,1016.55
2018-09-20T00:20:43.620Z,1016.57
2018-09-20T00:21:53.192Z,1016.53
2018-09-20T00:23:03.357Z,1016.54
2018-09-20T00:24:13.463Z,1016.58
2018-09-20T00:25:23.821Z,1016.51
2018-09-20T00:26:33.121Z,1016.54
2018-09-20T00:27:42.693Z,1016.52
2018-09-20T00:28:52.616Z,1016.58
2018-09-20T00:30:02.457Z,1016.52
2018-09-20T00:31:12.565Z,1016.53
2018-09-20T00:32:21.862Z,1016.49
2018-09-20T00:33:31.161Z,1016.5
2018-09-20T00:34:40.999Z,1016.47
2018-09-20T00:35:51.110Z,1016.44
2018-09-20T00:37:00.960Z,1016.45
2018-09-20T00:38:10.822Z,1016.45
2018-09-20T00:39:20.664Z,1016.39
2018-09-20T00:40:30.778Z,1016.42
2018-09-20T00:41:40.622Z,1016.45
2018-09-20T00:42:50.492Z,1016.43
2018-09-20T00:44:00.064Z,1016.4
2018-09-20T00:45:09.633Z,1016.45
2018-09-20T00:46:19.747Z,1016.44
2018-09-20T00:47:30.092Z,1016.5
2018-09-20T00:48:39.666Z,1016.43
2018-09-20T00:49:49.541Z,1016.4
2018-09-20T00:50:59.384Z,1016.4
2018-09-20T00:52:09.220Z,1016.38
2018-09-20T00:53:19.057Z,1016.42
2018-09-20T00:54:29.170Z,1016.41
2018-09-20T00:55:38.745Z,1016.44
2018-09-20T00:56:48.319Z,1016.45
2018-09-20T00:57:57.896Z,1016.39
2018-09-20T00:59:07.467Z,1016.41
2018-09-20T01:00:17.036Z,1016.44
2018-09-20T01:01:27.181Z,1016.45
2018-09-20T01:02:37.044Z,1016.43
2018-09-20T01:03:47.159Z,1016.46
2018-09-20T01:04:56.466Z,1016.44
2018-09-20T01:06:06.578Z,1016.43
2018-09-20T01:07:16.745Z,1016.41
2018-09-20T01:08:26.600Z,1016.44
2018-09-20T01:09:36.493Z,1016.45
2018-09-20T01:10:46.330Z,1016.39
2018-09-20T01:11:56.478Z,1016.46
2018-09-20T01:13:06.326Z,1016.45
2018-09-20T01:14:15.924Z,1016.42
2018-09-20T01:15:26.036Z,1016.45
2018-09-20T01:16:35.601Z,1016.44
2018-09-20T01:17:45.450Z,1016.43
2018-09-20T01:18:55.289Z,1016.48
2018-09-20T01:20:05.398Z,1016.43
2018-09-20T01:21:15.511Z,1016.43
2018-09-20T01:22:25.351Z,1016.45
2018-09-20T01:23:35.466Z,1016.43
2018-09-20T01:24:45.347Z,1016.42
2018-09-20T01:25:55.199Z,1016.43
2018-09-20T01:27:05.037Z,1016.47
2018-09-20T01:28:15.160Z,1016.47
2018-09-20T01:29:25.006Z,1016.46
2018-09-20T01:30:35.119Z,1016.45
2018-09-20T01:31:44.957Z,1016.44
2018-09-20T01:32:54.534Z,1016.41
2018-09-20T01:34:04.106Z,1016.38
2018-09-20T01:35:13.996Z,1016.4
2018-09-20T01:36:24.042Z,1016.35
2018-09-20T01:37:33.886Z,1016.37
2018-09-20T01:38:43.763Z,1016.35
2018-09-20T01:39:53.573Z,1016.35
2018-09-20T01:41:03.414Z,1016.36
2018-09-20T01:42:13.256Z,1016.36
2018-09-20T01:43:23.093Z,1016.34
2018-09-20T01:44:33.215Z,1016.34
2018-09-20T01:45:43.058Z,1016.29
2018-09-20T01:46:52.892Z,1016.38
2018-09-20T01:48:02.732Z,1016.36
2018-09-20T01:49:12.574Z,1016.35
2018-09-20T01:50:22.296Z,1016.34
2018-09-20T01:51:32.141Z,1016.34
2018-09-20T01:52:42.028Z,1016.32
2018-09-20T01:53:51.599Z,1016.33
2018-09-20T01:55:01.195Z,1016.33
2018-09-20T01:56:10.496Z,1016.39
2018-09-20T01:57:20.337Z,1016.37
2018-09-20T01:58:29.904Z,1016.36
2018-09-20T01:59:39.796Z,1016.38
2018-09-20T02:00:49.919Z,1016.4
2018-09-20T02:01:59.543Z,1016.35
2018-09-20T02:03:09.388Z,1016.33
2018-09-20T02:04:18.967Z,1016.35
2018-09-20T02:05:28.808Z,1016.35
2018-09-20T02:06:38.701Z,1016.33
2018-09-20T02:07:48.109Z,1016.35
2018-09-20T02:08:57.949Z,1016.36
2018-09-20T02:10:07.246Z,1016.38
2018-09-20T02:11:17.088Z,1016.34
2018-09-20T02:12:26.927Z,1016.38
2018-09-20T02:13:37.090Z,1016.38
2018-09-20T02:14:47.203Z,1016.41
2018-09-20T02:15:56.773Z,1016.42
2018-09-20T02:17:06.613Z,1016.43
2018-09-20T02:18:16.720Z,1016.44
2018-09-20T02:19:26.299Z,1016.43
2018-09-20T02:20:36.448Z,1016.39
2018-09-20T02:21:46.289Z,1016.45
2018-09-20T02:22:56.446Z,1016.4
2018-09-20T02:24:06.290Z,1016.43
2018-09-20T02:25:15.595Z,1016.4
2018-09-20T02:26:25.167Z,1016.41
2018-09-20T02:27:35.012Z,1016.42
2018-09-20T02:28:44.857Z,1016.47
2018-09-20T02:29:54.977Z,1016.47
2018-09-20T02:31:04.613Z,1016.46
2018-09-20T02:32:14.729Z,1016.47
2018-09-20T02:33:24.840Z,1016.49
2018-09-20T02:34:34.972Z,1016.45
2018-09-20T02:35:44.840Z,1016.47
2018-09-20T02:36:54.954Z,1016.42
2018-09-20T02:38:04.540Z,1016.53
2018-09-20T02:39:14.109Z,1016.38
2018-09-20T02:40:23.452Z,1016.45
2018-09-20T02:41:33.319Z,1016.41
2018-09-20T02:42:42.625Z,1016.43
2018-09-20T02:43:51.936Z,1016.39
2018-09-20T02:45:01.553Z,1016.36
2018-09-20T02:46:11.683Z,1016.36
2018-09-20T02:47:21.795Z,1016.38
2018-09-20T02:48:31.368Z,1016.37
2018-09-20T02:49:40.943Z,1016.34
2018-09-20T02:50:50.527Z,1016.38
2018-09-20T02:52:00.095Z,1016.39
2018-09-20T02:53:09.683Z,1016.4
2018-09-20T02:54:19.538Z,1016.39
2018-09-20T02:55:29.110Z,1016.39
2018-09-20T02:56:38.961Z,1016.38
2018-09-20T02:57:48.572Z,1016.41
2018-09-20T02:58:58.223Z,1016.33
2018-09-20T03:00:08.551Z,1016.37
2018-09-20T03:01:18.403Z,1016.4
2018-09-20T03:02:28.186Z,1016.41
2018-09-20T03:03:37.494Z,1016.39
2018-09-20T03:04:47.619Z,1016.43
2018-09-20T03:05:57.477Z,1016.43
2018-09-20T03:07:07.081Z,1016.41
2018-09-20T03:08:16.382Z,1016.39
2018-09-20T03:09:26.255Z,1016.4
2018-09-20T03:10:36.112Z,1016.39
2018-09-20T03:11:46.281Z,1016.39
2018-09-20T03:12:55.856Z,1016.37
2018-09-20T03:14:05.996Z,1016.43
2018-09-20T03:15:15.576Z,1016.37
2018-09-20T03:16:24.874Z,1016.38
2018-09-20T03:17:34.451Z,1016.38
2018-09-20T03:18:44.560Z,1016.38
2018-09-20T03:19:54.669Z,1016.39
2018-09-20T03:21:04.514Z,1016.36
2018-09-20T03:22:14.641Z,1016.38
2018-09-20T03:23:24.762Z,1016.36
2018-09-20T03:24:34.886Z,1016.41
2018-09-20T03:25:44.732Z,1016.38
2018-09-20T03:26:54.034Z,1016.36
2018-09-20T03:28:03.888Z,1016.4
2018-09-20T03:29:13.192Z,1016.38
2018-09-20T03:30:23.129Z,1016.38
2018-09-20T03:31:33.683Z,1016.42
2018-09-20T03:32:43.289Z,1016.45
2018-09-20T03:33:53.423Z,1016.43
2018-09-20T03:35:03.576Z,1016.45
2018-09-20T03:36:13.726Z,1016.38
2018-09-20T03:37:23.306Z,1016.41
2018-09-20T03:38:33.170Z,1016.38
2018-09-20T03:39:43.291Z,1016.4
2018-09-20T03:40:53.177Z,1016.4
2018-09-20T03:42:03.298Z,1016.41
2018-09-20T03:43:13.407Z,1016.43
2018-09-20T03:44:22.979Z,1016.48
2018-09-20T03:45:32.846Z,1016.46
2018-09-20T03:46:42.912Z,1016.46
2018-09-20T03:47:53.054Z,1016.47
2018-09-20T03:49:02.670Z,1016.46
2018-09-20T03:50:12.524Z,1016.47
2018-09-20T03:51:22.372Z,1016.44
2018-09-20T03:52:31.995Z,1016.5
2018-09-20T03:53:42.127Z,1016.5
2018-09-20T03:54:51.434Z,1016.5
2018-09-20T03:56:01.546Z,1016.48
2018-09-20T03:57:11.117Z,1016.48
2018-09-20T03:58:21.238Z,1016.46
2018-09-20T03:59:31.079Z,1016.43
2018-09-20T04:00:41.248Z,1016.43
2018-09-20T04:01:51.362Z,1016.49
2018-09-20T04:03:00.657Z,1016.44
2018-09-20T04:04:10.577Z,1016.44
2018-09-20T04:05:20.151Z,1016.46
2018-09-20T04:06:29.997Z,1016.44
2018-09-20T04:07:40.126Z,1016.45
2018-09-20T04:08:50.327Z,1016.41
2018-09-20T04:10:00.220Z,1016.44
2018-09-20T04:11:10.103Z,1016.43
2018-09-20T04:12:19.414Z,1016.42
2018-09-20T04:13:29.301Z,1016.38
2018-09-20T04:14:39.148Z,1016.42
2018-09-20T04:15:48.723Z,1016.4
2018-09-20T04:16:58.566Z,1016.46
2018-09-20T04:18:08.632Z,1016.4
2018-09-20T04:19:18.746Z,1016.44
2018-09-20T04:20:28.326Z,1016.46
2018-09-20T04:21:38.182Z,1016.47
2018-09-20T04:22:48.032Z,1016.48
2018-09-20T04:23:58.148Z,1016.51
2018-09-20T04:25:08.011Z,1016.53
2018-09-20T04:26:17.845Z,1016.48
2018-09-20T04:27:27.438Z,1016.44
2018-09-20T04:28:37.054Z,1016.48
2018-09-20T04:29:47.189Z,1016.5
2018-09-20T04:30:56.810Z,1016.51
2018-09-20T04:32:06.113Z,1016.47
2018-09-20T04:33:15.994Z,1016.5
2018-09-20T04:34:25.574Z,1016.48
2018-09-20T04:35:35.152Z,1016.48
2018-09-20T04:36:45.024Z,1016.51
2018-09-20T04:37:54.871Z,1016.49
2018-09-20T04:39:04.449Z,1016.47
2018-09-20T04:40:14.286Z,1016.43
2018-09-20T04:41:23.889Z,1016.52
2018-09-20T04:42:34.103Z,1016.49
2018-09-20T04:43:43.955Z,1016.53
2018-09-20T04:44:53.813Z,1016.48
2018-09-20T04:46:03.389Z,1016.52
2018-09-20T04:47:13.499Z,1016.52
2018-09-20T04:48:23.072Z,1016.5
2018-09-20T04:49:32.369Z,1016.54
2018-09-20T04:50:41.404Z,1016.54
2018-09-20T04:51:51.570Z,1016.51
2018-09-20T04:53:01.880Z,1016.48
2018-09-20T04:54:12.112Z,1016.52
2018-09-20T04:55:22.293Z,1016.52
2018-09-20T04:56:32.152Z,1016.55
2018-09-20T04:57:41.456Z,1016.61
2018-09-20T04:58:51.297Z,1016.58
2018-09-20T05:00:00.654Z,1016.6
2018-09-20T05:01:10.819Z,1016.6
2018-09-20T05:02:20.930Z,1016.62
2018-09-20T05:03:30.780Z,1016.63
2018-09-20T05:04:40.896Z,1016.62
2018-09-20T05:05:50.468Z,1016.64
2018-09-20T05:07:00.582Z,1016.66
2018-09-20T05:08:10.694Z,1016.61
2018-09-20T05:09:19.995Z,1016.64
2018-09-20T05:10:30.114Z,1016.67
2018-09-20T05:11:39.959Z,1016.67
2018-09-20T05:12:50.079Z,1016.67
2018-09-20T05:13:59.919Z,1016.67
2018-09-20T05:15:09.698Z,1016.65
2018-09-20T05:16:19.263Z,1016.6
2018-09-20T05:17:29.074Z,1016.61
2018-09-20T05:18:38.918Z,1016.59
2018-09-20T05:19:48.756Z,1016.58
2018-09-20T05:20:58.896Z,1016.62
2018-09-20T05:22:08.464Z,1016.59
2018-09-20T05:23:18.331Z,1016.56
2018-09-20T05:24:28.247Z,1016.54
2018-09-20T05:25:38.146Z,1016.55
2018-09-20T05:26:47.727Z,1016.52
2018-09-20T05:27:56.754Z,1016.54
2018-09-20T05:29:06.971Z,1016.49
2018-09-20T05:30:17.078Z,1016.54
2018-09-20T05:31:26.925Z,1016.57
2018-09-20T05:32:36.497Z,1016.52
2018-09-20T05:33:46.340Z,1016.53
2018-09-20T05:34:55.918Z,1016.54
2018-09-20T05:36:06.046Z,1016.48
2018-09-20T05:37:15.346Z,1016.52
2018-09-20T05:38:25.192Z,1016.53
2018-09-20T05:39:35.043Z,1016.51
2018-09-20T05:40:45.182Z,1016.56
2018-09-20T05:41:54.482Z,1016.51
2018-09-20T05:43:04.418Z,1016.55
2018-09-20T05:44:14.528Z,1016.54
2018-09-20T05:45:24.335Z,1016.53
2018-09-20T05:46:34.480Z,1016.56
2018-09-20T05:47:44.625Z,1016.55
2018-09-20T05:48:54.493Z,1016.56
2018-09-20T05:50:04.332Z,1016.55
2018-09-20T05:51:13.918Z,1016.57
2018-09-20T05:52:23.217Z,1016.61
2018-09-20T05:53:32.789Z,1016.58
2018-09-20T05:54:42.913Z,1016.64
2018-09-20T05:55:52.753Z,1016.57
2018-09-20T05:57:02.866Z,1016.65
2018-09-20T05:58:12.978Z,1016.61
2018-09-20T05:59:23.162Z,1016.67
2018-09-20T06:00:32.118Z,1016.66
2018-09-20T06:01:41.920Z,1016.72
2018-09-20T06:02:51.487Z,1016.68
2018-09-20T06:04:01.073Z,1016.64
2018-09-20T06:05:10.910Z,1016.67
2018-09-20T06:06:20.776Z,1016.6
2018-09-20T06:07:30.619Z,1016.68
2018-09-20T06:08:40.459Z,1016.64
2018-09-20T06:09:50.327Z,1016.67
2018-09-20T06:10:59.893Z,1016.65
2018-09-20T06:12:09.194Z,1016.64
2018-09-20T06:13:18.802Z,1016.66
2018-09-20T06:14:28.558Z,1016.63
2018-09-20T06:15:38.395Z,1016.67
2018-09-20T06:16:48.533Z,1016.69
2018-09-20T06:17:58.653Z,1016.68
2018-09-20T06:19:08.217Z,1016.71
2018-09-20T06:20:18.062Z,1016.7
2018-09-20T06:21:27.866Z,1016.68
2018-09-20T06:22:37.538Z,1016.71
2018-09-20T06:23:47.161Z,1016.68
2018-09-20T06:24:56.738Z,1016.67
2018-09-20T06:26:06.854Z,1016.73
2018-09-20T06:27:16.158Z,1016.69
2018-09-20T06:28:25.998Z,1016.75
2018-09-20T06:29:35.877Z,1016.74
2018-09-20T06:30:45.751Z,1016.74
2018-09-20T06:31:55.862Z,1016.75
2018-09-20T06:33:05.737Z,1016.74
2018-09-20T06:34:15.857Z,1016.83
2018-09-20T06:35:26.203Z,1016.81
2018-09-20T06:36:35.502Z,1016.83
2018-09-20T06:37:44.849Z,1016.79
2018-09-20T06:38:54.724Z,1016.76
2018-09-20T06:40:04.843Z,1016.79
2018-09-20T06:41:14.423Z,1016.76
2018-09-20T06:42:24.305Z,1016.75
2018-09-20T06:43:34.449Z,1016.73
2018-09-20T06:44:44.311Z,1016.7
2018-09-20T06:45:54.159Z,1016.71
2018-09-20T06:47:04.275Z,1016.75
2018-09-20T06:48:14.122Z,1016.77
2018-09-20T06:49:24.021Z,1016.72
2018-09-20T06:50:34.181Z,1016.73
2018-09-20T06:51:43.825Z,1016.66
2018-09-20T06:52:53.940Z,1016.7
2018-09-20T06:54:03.778Z,1016.76
2018-09-20T06:55:13.080Z,1016.75
2018-09-20T06:56:22.927Z,1016.71
2018-09-20T06:57:32.917Z,1016.72
2018-09-20T06:58:43.036Z,1016.72
2018-09-20T06:59:53.172Z,1016.73
2018-09-20T07:01:03.045Z,1016.71
2018-09-20T07:02:12.617Z,1016.74
2018-09-20T07:03:22.777Z,1016.79
2018-09-20T07:04:33.071Z,1016.74
2018-09-20T07:05:43.202Z,1016.69
2018-09-20T07:06:53.330Z,1016.75
2018-09-20T07:08:02.627Z,1016.72
2018-09-20T07:09:11.931Z,1016.67
2018-09-20T07:10:21.511Z,1016.73
2018-09-20T07:11:31.385Z,1016.7
2018-09-20T07:12:41.502Z,1016.71
2018-09-20T07:13:51.169Z,1016.7
2018-09-20T07:15:00.811Z,1016.67
2018-09-20T07:16:10.958Z,1016.72
2018-09-20T07:17:20.531Z,1016.7
2018-09-20T07:18:30.109Z,1016.71
2018-09-20T07:19:39.692Z,1016.69
2018-09-20T07:20:49.794Z,1016.7
2018-09-20T07:21:59.911Z,1016.72
2018-09-20T07:23:10.026Z,1016.62
2018-09-20T07:24:19.869Z,1016.65
2018-09-20T07:25:29.203Z,1016.66
2018-09-20T07:26:38.935Z,1016.67
2018-09-20T07:27:48.794Z,1016.63
2018-09-20T07:28:58.905Z,1016.67
2018-09-20T07:30:09.019Z,1016.67
2018-09-20T07:31:18.897Z,1016.68
2018-09-20T07:32:28.476Z,1016.68
2018-09-20T07:33:38.382Z,1016.68
2018-09-20T07:34:48.294Z,1016.71
2018-09-20T07:35:58.137Z,1016.71
2018-09-20T07:37:08.010Z,1016.7
2018-09-20T07:38:18.123Z,1016.78
2018-09-20T07:39:27.999Z,1016.75
2018-09-20T07:40:37.845Z,1016.71
2018-09-20T07:41:47.964Z,1016.73
2018-09-20T07:42:57.539Z,1016.8
2018-09-20T07:44:06.842Z,1016.74
2018-09-20T07:45:16.740Z,1016.74
2018-09-20T07:46:26.584Z,1016.81
2018-09-20T07:47:36.157Z,1016.7
2018-09-20T07:48:46.238Z,1016.71
2018-09-20T07:49:56.353Z,1016.72
2018-09-20T07:51:06.202Z,1016.67
2018-09-20T07:52:15.766Z,1016.73
2018-09-20T07:53:25.063Z,1016.68
2018-09-20T07:54:35.311Z,1016.67
2018-09-20T07:55:45.424Z,1016.71
2018-09-20T07:56:55.277Z,1016.76
2018-09-20T07:58:05.420Z,1016.71
2018-09-20T07:59:14.997Z,1016.77
2018-09-20T08:00:24.567Z,1016.81
2018-09-20T08:01:34.487Z,1016.73
2018-09-20T08:02:45.446Z,1016.71
2018-09-20T08:03:55.018Z,1016.71
2018-09-20T08:05:04.332Z,1016.72
2018-09-20T08:06:13.637Z,1016.72
2018-09-20T08:07:23.749Z,1016.71
2018-09-20T08:08:33.594Z,1016.74
2018-09-20T08:09:43.165Z,1016.77
2018-09-20T08:10:52.747Z,1016.75
2018-09-20T08:12:02.318Z,1016.72
2018-09-20T08:13:11.623Z,1016.73
2018-09-20T08:14:21.801Z,1016.71
2018-09-20T08:15:31.650Z,1016.69
2018-09-20T08:16:41.233Z,1016.69
2018-09-20T08:17:51.073Z,1016.69
2018-09-20T08:19:00.912Z,1016.72
2018-09-20T08:20:11.024Z,1016.71
2018-09-20T08:21:21.171Z,1016.7
2018-09-20T08:22:31.197Z,1016.76
2018-09-20T08:23:41.040Z,1016.69
2018-09-20T08:24:50.891Z,1016.72
2018-09-20T08:26:00.198Z,1016.72
2018-09-20T08:27:09.771Z,1016.69
2018-09-20T08:28:19.612Z,1016.66
2018-09-20T08:29:29.728Z,1016.65
2018-09-20T08:30:39.589Z,1016.65
2018-09-20T08:31:49.169Z,1016.68
2018-09-20T08:32:59.287Z,1016.67
2018-09-20T08:34:09.407Z,1016.6
2018-09-20T08:35:19.285Z,1016.6
2018-09-20T08:36:28.940Z,1016.66
2018-09-20T08:37:38.648Z,1016.69
2018-09-20T08:38:49.567Z,1016.71
2018-09-20T08:39:59.682Z,1016.75
2018-09-20T08:41:09.570Z,1016.72
2018-09-20T08:42:19.514Z,1016.77
2018-09-20T08:43:29.995Z,1016.78
2018-09-20T08:44:39.568Z,1016.78
2018-09-20T08:45:49.411Z,1016.79
2018-09-20T08:46:58.997Z,1016.83
2018-09-20T08:48:08.848Z,1016.82
2018-09-20T08:49:18.703Z,1016.83
2018-09-20T08:50:28.275Z,1016.8
2018-09-20T08:51:38.387Z,1016.81
2018-09-20T08:52:48.248Z,1016.78
2018-09-20T08:53:58.094Z,1016.77
2018-09-20T08:55:07.945Z,1016.81
2018-09-20T08:56:17.536Z,1016.76
2018-09-20T08:57:27.390Z,1016.72
2018-09-20T08:58:37.529Z,1016.72
2018-09-20T08:59:47.113Z,1016.76
2018-09-20T09:00:57.287Z,1016.72
2018-09-20T09:02:06.863Z,1016.78
2018-09-20T09:03:16.179Z,1016.77
2018-09-20T09:04:25.810Z,1016.78
2018-09-20T09:05:36.286Z,1016.76
2018-09-20T09:06:46.410Z,1016.75
2018-09-20T09:07:55.990Z,1016.75
2018-09-20T09:09:05.837Z,1016.71
2018-09-20T09:10:15.954Z,1016.7
2018-09-20T09:11:26.069Z,1016.73
2018-09-20T09:12:35.627Z,1016.75
2018-09-20T09:13:45.750Z,1016.7
2018-09-20T09:14:55.602Z,1016.71
2018-09-20T09:16:05.227Z,1016.73
2018-09-20T09:17:14.808Z,1016.62
2018-09-20T09:18:24.925Z,1016.66
2018-09-20T09:19:33.981Z,1016.66
2018-09-20T09:20:43.943Z,1016.62
2018-09-20T09:21:53.519Z,1016.62
2018-09-20T09:23:03.630Z,1016.64
2018-09-20T09:24:13.753Z,1016.57
2018-09-20T09:25:23.333Z,1016.64
2018-09-20T09:26:33.452Z,1016.59
2018-09-20T09:27:43.032Z,1016.6
2018-09-20T09:28:53.154Z,1016.62
2018-09-20T09:30:03.013Z,1016.6
2018-09-20T09:31:12.818Z,1016.58
2018-09-20T09:32:22.695Z,1016.58
2018-09-20T09:33:32.270Z,1016.63
2018-09-20T09:34:42.120Z,1016.57
2018-09-20T09:35:51.431Z,1016.57
2018-09-20T09:37:01.277Z,1016.55
2018-09-20T09:38:10.856Z,1016.54
2018-09-20T09:39:20.457Z,1016.52
2018-09-20T09:40:29.762Z,1016.45
2018-09-20T09:41:39.627Z,1016.49
2018-09-20T09:42:49.691Z,1016.44
2018-09-20T09:43:59.274Z,1016.35
2018-09-20T09:45:09.397Z,1016.42
2018-09-20T09:46:19.245Z,1016.45
2018-09-20T09:47:28.817Z,1016.41
2018-09-20T09:48:38.392Z,1016.44
2018-09-20T09:49:47.696Z,1016.37
2018-09-20T09:50:57.548Z,1016.42
2018-09-20T09:52:07.119Z,1016.33
2018-09-20T09:53:17.166Z,1016.3
2018-09-20T09:54:27.092Z,1016.34
2018-09-20T09:55:36.848Z,1016.33
2018-09-20T09:56:46.153Z,1016.27
2018-09-20T09:57:55.729Z,1016.26
2018-09-20T09:59:05.569Z,1016.2
2018-09-20T10:00:15.408Z,1016.23
2018-09-20T10:01:24.718Z,1016.19
2018-09-20T10:02:34.638Z,1016.21
2018-09-20T10:03:44.060Z,1016.18
2018-09-20T10:04:53.905Z,1016.1
2018-09-20T10:06:03.212Z,1016.13
2018-09-20T10:07:12.529Z,1016.12
2018-09-20T10:08:22.311Z,1016.1
2018-09-20T10:09:32.153Z,1016.06
2018-09-20T10:10:41.761Z,1016.1
2018-09-20T10:11:51.883Z,1016.07
2018-09-20T10:13:02.009Z,1016.1
2018-09-20T10:14:11.896Z,1016.07
2018-09-20T10:15:22.023Z,1016.02
2018-09-20T10:16:32.205Z,1015.99
2018-09-20T10:17:41.543Z,1015.99
2018-09-20T10:18:51.394Z,1016.01
2018-09-20T10:20:01.581Z,1016.01
2018-09-20T10:21:11.679Z,1015.98
2018-09-20T10:22:21.861Z,1015.99
2018-09-20T10:23:31.718Z,1015.9
2018-09-20T10:24:41.571Z,1015.97
2018-09-20T10:25:51.722Z,1016
2018-09-20T10:27:01.841Z,1015.97
2018-09-20T10:28:11.718Z,1015.96
2018-09-20T10:29:21.520Z,1015.93
2018-09-20T10:30:31.374Z,1015.88
2018-09-20T10:31:41.502Z,1015.88
2018-09-20T10:32:50.804Z,1015.87
2018-09-20T10:34:00.554Z,1015.83
2018-09-20T10:35:11.163Z,1015.86
2018-09-20T10:36:20.745Z,1015.81
2018-09-20T10:37:30.863Z,1015.84
2018-09-20T10:38:40.715Z,1015.77
2018-09-20T10:39:50.615Z,1015.78
2018-09-20T10:41:00.521Z,1015.77
2018-09-20T10:42:10.640Z,1015.8
2018-09-20T10:43:20.212Z,1015.75
2018-09-20T10:44:29.818Z,1015.76
2018-09-20T10:45:39.713Z,1015.69
2018-09-20T10:46:49.824Z,1015.72
2018-09-20T10:47:59.664Z,1015.69
2018-09-20T10:49:08.975Z,1015.69
2018-09-20T10:50:18.581Z,1015.65
2018-09-20T10:51:28.747Z,1015.62
2018-09-20T10:52:38.322Z,1015.62
2018-09-20T10:53:48.169Z,1015.66
2018-09-20T10:54:58.009Z,1015.63
2018-09-20T10:56:07.046Z,1015.61
2018-09-20T10:57:17.176Z,1015.67
2018-09-20T10:58:27.018Z,1015.66
2018-09-20T10:59:37.188Z,1015.58
2018-09-20T11:00:46.492Z,1015.59
2018-09-20T11:01:56.617Z,1015.55
2018-09-20T11:03:06.539Z,1015.54
2018-09-20T11:04:16.798Z,1015.6
2018-09-20T11:05:26.377Z,1015.54
2018-09-20T11:06:36.731Z,1015.51
2018-09-20T11:07:46.852Z,1015.51
2018-09-20T11:08:56.433Z,1015.51
2018-09-20T11:10:06.571Z,1015.49
2018-09-20T11:11:16.433Z,1015.5
2018-09-20T11:12:26.015Z,1015.44
2018-09-20T11:13:35.859Z,1015.4
2018-09-20T11:14:45.498Z,1015.45
2018-09-20T11:15:55.341Z,1015.42
2018-09-20T11:17:05.450Z,1015.46
2018-09-20T11:18:15.039Z,1015.41
2018-09-20T11:19:24.077Z,1015.48
2018-09-20T11:20:33.949Z,1015.39
2018-09-20T11:21:43.529Z,1015.42
2018-09-20T11:22:53.640Z,1015.43
2018-09-20T11:24:02.946Z,1015.42
2018-09-20T11:25:12.798Z,1015.42
2018-09-20T11:26:22.691Z,1015.42
2018-09-20T11:27:32.268Z,1015.42
2018-09-20T11:28:42.147Z,1015.33
2018-09-20T11:29:52.257Z,1015.48
2018-09-20T11:31:02.106Z,1015.39
2018-09-20T11:32:12.269Z,1015.33
2018-09-20T11:33:22.405Z,1015.42
2018-09-20T11:34:32.525Z,1015.46
2018-09-20T11:35:42.399Z,1015.45
2018-09-20T11:36:52.536Z,1015.53
2018-09-20T11:38:02.399Z,1015.42
2018-09-20T11:39:11.434Z,1015.33
2018-09-20T11:40:21.011Z,1015.49
2018-09-20T11:41:30.856Z,1015.45
2018-09-20T11:42:40.630Z,1015.39
2018-09-20T11:43:50.428Z,1015.42
2018-09-20T11:45:00.609Z,1015.41
2018-09-20T11:46:10.342Z,1015.37
2018-09-20T11:47:20.484Z,1015.41
2018-09-20T11:48:30.380Z,1015.47
2018-09-20T11:49:40.642Z,1015.37
2018-09-20T11:50:50.514Z,1015.44
2018-09-20T11:52:00.498Z,1015.47
2018-09-20T11:53:10.353Z,1015.41
2018-09-20T11:54:20.569Z,1015.41
2018-09-20T11:55:30.145Z,1015.45
2018-09-20T11:56:40.299Z,1015.44
2018-09-20T11:57:49.910Z,1015.47
2018-09-20T11:58:59.764Z,1015.45
2018-09-20T12:00:09.592Z,1015.37
2018-09-20T12:01:19.361Z,1015.37
2018-09-20T12:02:29.860Z,1015.38
2018-09-20T12:03:39.986Z,1015.44
2018-09-20T12:04:49.861Z,1015.42
2018-09-20T12:05:59.973Z,1015.41
2018-09-20T12:07:09.545Z,1015.38
2018-09-20T12:08:19.395Z,1015.33
2018-09-20T12:09:29.540Z,1015.3
2018-09-20T12:10:39.089Z,1015.36
2018-09-20T12:11:49.029Z,1015.42
2018-09-20T12:12:58.602Z,1015.4
2018-09-20T12:14:08.180Z,1015.31
2018-09-20T12:15:17.488Z,1015.42
2018-09-20T12:16:27.604Z,1015.28
2018-09-20T12:17:37.452Z,1015.32
2018-09-20T12:18:47.631Z,1015.28
2018-09-20T12:19:57.522Z,1015.22
2018-09-20T12:21:07.758Z,1015.29
2018-09-20T12:22:17.333Z,1015.27
2018-09-20T12:23:26.906Z,1015.26
2018-09-20T12:24:37.032Z,1015.17
2018-09-20T12:25:46.352Z,1015.3
2018-09-20T12:26:56.718Z,1015.27
2018-09-20T12:28:06.296Z,1015.29
2018-09-20T12:29:16.731Z,1015.23
2018-09-20T12:30:26.713Z,1015.28
2018-09-20T12:31:36.495Z,1015.27
2018-09-20T12:32:46.519Z,1015.29
2018-09-20T12:33:56.673Z,1015.29
2018-09-20T12:35:06.522Z,1015.23
2018-09-20T12:36:16.418Z,1015.28
2018-09-20T12:37:26.361Z,1015.17
2018-09-20T12:38:36.553Z,1015.14
2018-09-20T12:39:46.676Z,1015.12
2018-09-20T12:40:56.943Z,1015.31
2018-09-20T12:42:07.144Z,1015.13
2018-09-20T12:43:17.071Z,1015.12
2018-09-20T12:44:26.945Z,1015.11
2018-09-20T12:45:36.697Z,1015.04
2018-09-20T12:46:46.987Z,1015.03
2018-09-20T12:47:56.749Z,1015
2018-09-20T12:49:07.143Z,1015.06
2018-09-20T12:50:17.037Z,1015.1
2018-09-20T12:51:27.222Z,1015.05
2018-09-20T12:52:37.133Z,1015.1
2018-09-20T12:53:47.384Z,1015.05
2018-09-20T12:54:57.089Z,1014.96
2018-09-20T12:56:07.161Z,1014.95
2018-09-20T12:57:16.874Z,1014.96
2018-09-20T12:58:26.340Z,1014.95
2018-09-20T12:59:35.985Z,1014.94
2018-09-20T13:00:45.938Z,1014.98
2018-09-20T13:01:55.787Z,1014.94
2018-09-20T13:03:06.260Z,1014.91
2018-09-20T13:04:16.033Z,1014.94
2018-09-20T13:05:25.770Z,1014.95
2018-09-20T13:06:34.903Z,1014.86
2018-09-20T13:07:44.874Z,1014.85
2018-09-20T13:08:54.773Z,1014.8
2018-09-20T13:10:04.608Z,1014.83
2018-09-20T13:11:14.835Z,1014.77
2018-09-20T13:12:24.602Z,1014.83
2018-09-20T13:13:34.831Z,1014.76
2018-09-20T13:14:45.124Z,1014.69
2018-09-20T13:15:54.744Z,1014.86
2018-09-20T13:17:04.369Z,1014.67
2018-09-20T13:18:14.268Z,1014.68
2018-09-20T13:19:23.948Z,1014.62
2018-09-20T13:20:33.612Z,1014.68
2018-09-20T13:21:43.636Z,1014.67
2018-09-20T13:22:53.324Z,1014.64
2018-09-20T13:24:03.003Z,1014.56
2018-09-20T13:25:12.677Z,1014.54
2018-09-20T13:26:23.009Z,1014.53
2018-09-20T13:27:33.430Z,1014.55
2018-09-20T13:28:43.717Z,1014.5
2018-09-20T13:29:53.774Z,1014.54
2018-09-20T13:31:03.479Z,1014.53
2018-09-20T13:32:13.248Z,1014.54
2018-09-20T13:33:23.276Z,1014.52
2018-09-20T13:34:33.176Z,1014.5
2018-09-20T13:35:43.371Z,1014.51
2018-09-20T13:36:53.551Z,1014.45
2018-09-20T13:38:03.593Z,1014.48
2018-09-20T13:39:13.062Z,1014.45
2018-09-20T13:40:23.281Z,1014.49
2018-09-20T13:41:33.275Z,1014.48
2018-09-20T13:42:43.209Z,1014.49
2018-09-20T13:43:53.107Z,1014.52
2018-09-20T13:45:02.732Z,1014.46
2018-09-20T13:46:12.720Z,1014.57
2018-09-20T13:47:22.392Z,1014.48
2018-09-20T13:48:32.428Z,1014.45
2018-09-20T13:49:42.766Z,1014.45
2018-09-20T13:50:52.882Z,1014.4
2018-09-20T13:52:02.270Z,1014.43
2018-09-20T13:53:12.187Z,1014.46
2018-09-20T13:54:22.364Z,1014.42
2018-09-20T13:55:32.354Z,1014.44
2018-09-20T13:56:42.377Z,1014.49
2018-09-20T13:57:52.114Z,1014.43
2018-09-20T13:59:01.549Z,1014.48
2018-09-20T14:00:11.778Z,1014.47
2018-09-20T14:01:21.715Z,1014.48
2018-09-20T14:02:31.069Z,1014.51
2018-09-20T14:03:41.476Z,1014.42
2018-09-20T14:04:51.593Z,1014.4
2018-09-20T14:06:01.970Z,1014.55
2018-09-20T14:07:12.452Z,1014.53